sensor_id;sensor_type;location;lat;lon;timestamp;temperature;humidity
13426;DHT22;6785;57.918;12.530;2022-08-06T00:02:18;12.90;99.90
13426;DHT22;6785;57.918;12.530;2022-08-06T00:04:46;12.80;99.90
13426;DHT22;6785;57.918;12.530;2022-08-06T00:07:15;12.80;99.90
13426;DHT22;6785;57.918;12.530;2022-08-06T00:09:42;12.70;99.90
13426;DHT22;6785;57.918;12.530;2022-08-06T00:12:10;12.70;99.90
13426;DHT22;6785;57.918;12.530;2022-08-06T00:14:37;12.70;99.90
13426;DHT22;6785;57.918;12.530;2022-08-06T00:17:04;12.70;99.90
13426;DHT22;6785;57.918;12.530;2022-08-06T00:19:31;12.70;99.90
13426;DHT22;6785;57.918;12.530;2022-08-06T00:21:58;12.60;99.90
13426;DHT22;6785;57.918;12.530;2022-08-06T00:24:27;12.60;99.90
13426;DHT22;6785;57.918;12.530;2022-08-06T00:26:55;12.60;99.90
13426;DHT22;6785;57.918;12.530;2022-08-06T00:29:22;12.60;99.90
13426;DHT22;6785;57.918;12.530;2022-08-06T00:31:48;12.60;99.90
13426;DHT22;6785;57.918;12.530;2022-08-06T00:34:15;12.50;99.90
13426;DHT22;6785;57.918;12.530;2022-08-06T00:36:42;12.40;99.90
13426;DHT22;6785;57.918;12.530;2022-08-06T00:39:10;12.40;99.90
13426;DHT22;6785;57.918;12.530;2022-08-06T00:41:38;12.50;99.90
13426;DHT22;6785;57.918;12.530;2022-08-06T00:44:05;12.50;99.90
13426;DHT22;6785;57.918;12.530;2022-08-06T00:46:32;12.40;99.90
13426;DHT22;6785;57.918;12.530;2022-08-06T00:48:59;12.30;99.90
13426;DHT22;6785;57.918;12.530;2022-08-06T00:51:26;12.30;99.90
13426;DHT22;6785;57.918;12.530;2022-08-06T00:53:53;12.30;99.90
13426;DHT22;6785;57.918;12.530;2022-08-06T00:56:21;12.30;99.90
13426;DHT22;6785;57.918;12.530;2022-08-06T00:58:49;12.30;99.90
13426;DHT22;6785;57.918;12.530;2022-08-06T01:01:16;12.30;99.90
13426;DHT22;6785;57.918;12.530;2022-08-06T01:03:43;12.30;99.90
13426;DHT22;6785;57.918;12.530;2022-08-06T01:06:10;12.30;99.90
13426;DHT22;6785;57.918;12.530;2022-08-06T01:08:37;12.40;99.90
13426;DHT22;6785;57.918;12.530;2022-08-06T01:11:05;12.40;99.90
13426;DHT22;6785;57.918;12.530;2022-08-06T01:13:32;12.30;99.90
13426;DHT22;6785;57.918;12.530;2022-08-06T01:16:08;12.20;99.90
13426;DHT22;6785;57.918;12.530;2022-08-06T01:18:47;12.20;99.90
13426;DHT22;6785;57.918;12.530;2022-08-06T01:21:28;12.20;99.90
13426;DHT22;6785;57.918;12.530;2022-08-06T01:24:12;12.20;99.90
13426;DHT22;6785;57.918;12.530;2022-08-06T01:26:51;12.20;99.90
13426;DHT22;6785;57.918;12.530;2022-08-06T01:29:25;12.20;99.90
13426;DHT22;6785;57.918;12.530;2022-08-06T01:31:58;12.20;99.90
13426;DHT22;6785;57.918;12.530;2022-08-06T01:34:31;12.30;99.90
13426;DHT22;6785;57.918;12.530;2022-08-06T01:37:05;12.20;99.90
13426;DHT22;6785;57.918;12.530;2022-08-06T01:39:36;12.20;99.90
13426;DHT22;6785;57.918;12.530;2022-08-06T01:42:05;12.20;99.90
13426;DHT22;6785;57.918;12.530;2022-08-06T01:44:39;12.20;99.90
13426;DHT22;6785;57.918;12.530;2022-08-06T01:47:09;12.10;99.90
13426;DHT22;6785;57.918;12.530;2022-08-06T01:49:38;12.10;99.90
13426;DHT22;6785;57.918;12.530;2022-08-06T01:52:06;12.10;99.90
13426;DHT22;6785;57.918;12.530;2022-08-06T01:54:39;12.10;99.90
13426;DHT22;6785;57.918;12.530;2022-08-06T01:57:07;12.10;99.90
13426;DHT22;6785;57.918;12.530;2022-08-06T01:59:40;12.10;99.90
13426;DHT22;6785;57.918;12.530;2022-08-06T02:02:12;12.10;99.90
13426;DHT22;6785;57.918;12.530;2022-08-06T02:04:43;12.20;99.90
13426;DHT22;6785;57.918;12.530;2022-08-06T02:07:13;12.10;99.90
13426;DHT22;6785;57.918;12.530;2022-08-06T02:09:43;12.10;99.90
13426;DHT22;6785;57.918;12.530;2022-08-06T02:12:14;12.10;99.90
13426;DHT22;6785;57.918;12.530;2022-08-06T02:14:47;12.10;99.90
13426;DHT22;6785;57.918;12.530;2022-08-06T02:17:17;12.00;99.90
13426;DHT22;6785;57.918;12.530;2022-08-06T02:19:46;12.00;99.90
13426;DHT22;6785;57.918;12.530;2022-08-06T02:22:15;12.00;99.90
13426;DHT22;6785;57.918;12.530;2022-08-06T02:24:44;12.00;99.90
13426;DHT22;6785;57.918;12.530;2022-08-06T02:27:12;12.00;99.90
13426;DHT22;6785;57.918;12.530;2022-08-06T02:29:41;12.00;99.90
13426;DHT22;6785;57.918;12.530;2022-08-06T02:32:10;11.80;99.90
13426;DHT22;6785;57.918;12.530;2022-08-06T02:34:38;11.80;99.90
13426;DHT22;6785;57.918;12.530;2022-08-06T02:37:09;11.80;99.90
13426;DHT22;6785;57.918;12.530;2022-08-06T02:39:41;11.80;99.90
13426;DHT22;6785;57.918;12.530;2022-08-06T02:42:17;11.80;99.90
13426;DHT22;6785;57.918;12.530;2022-08-06T02:44:51;11.80;99.90
13426;DHT22;6785;57.918;12.530;2022-08-06T02:47:27;11.70;99.90
13426;DHT22;6785;57.918;12.530;2022-08-06T02:49:59;11.70;99.90
13426;DHT22;6785;57.918;12.530;2022-08-06T02:52:32;11.70;99.90
13426;DHT22;6785;57.918;12.530;2022-08-06T02:55:07;11.70;99.90
13426;DHT22;6785;57.918;12.530;2022-08-06T02:57:38;11.70;99.90
13426;DHT22;6785;57.918;12.530;2022-08-06T03:00:07;11.60;99.90
13426;DHT22;6785;57.918;12.530;2022-08-06T03:02:39;11.70;99.90
13426;DHT22;6785;57.918;12.530;2022-08-06T03:05:10;11.70;99.90
13426;DHT22;6785;57.918;12.530;2022-08-06T03:07:40;11.70;99.90
13426;DHT22;6785;57.918;12.530;2022-08-06T03:10:08;11.70;99.90
13426;DHT22;6785;57.918;12.530;2022-08-06T03:12:36;11.70;99.90
13426;DHT22;6785;57.918;12.530;2022-08-06T03:15:05;11.70;99.90
13426;DHT22;6785;57.918;12.530;2022-08-06T03:17:35;11.70;99.90
13426;DHT22;6785;57.918;12.530;2022-08-06T03:20:04;11.70;99.90
13426;DHT22;6785;57.918;12.530;2022-08-06T03:22:32;11.70;99.90
13426;DHT22;6785;57.918;12.530;2022-08-06T03:25:01;11.70;99.90
13426;DHT22;6785;57.918;12.530;2022-08-06T03:27:29;11.60;99.90
13426;DHT22;6785;57.918;12.530;2022-08-06T03:29:57;11.60;99.90
13426;DHT22;6785;57.918;12.530;2022-08-06T03:32:26;11.60;99.90
13426;DHT22;6785;57.918;12.530;2022-08-06T03:34:56;11.60;99.90
13426;DHT22;6785;57.918;12.530;2022-08-06T03:37:24;11.60;99.90
13426;DHT22;6785;57.918;12.530;2022-08-06T03:39:52;11.60;99.90
13426;DHT22;6785;57.918;12.530;2022-08-06T03:42:20;11.70;99.90
13426;DHT22;6785;57.918;12.530;2022-08-06T03:44:47;11.70;99.90
13426;DHT22;6785;57.918;12.530;2022-08-06T03:47:23;11.80;99.90
13426;DHT22;6785;57.918;12.530;2022-08-06T03:49:57;11.70;99.90
13426;DHT22;6785;57.918;12.530;2022-08-06T03:52:29;11.80;99.90
13426;DHT22;6785;57.918;12.530;2022-08-06T03:55:01;11.90;99.90
13426;DHT22;6785;57.918;12.530;2022-08-06T03:57:37;12.00;99.90
13426;DHT22;6785;57.918;12.530;2022-08-06T04:00:09;12.10;99.90
13426;DHT22;6785;57.918;12.530;2022-08-06T04:02:39;12.10;99.90
13426;DHT22;6785;57.918;12.530;2022-08-06T04:05:10;12.20;99.90
13426;DHT22;6785;57.918;12.530;2022-08-06T04:07:38;12.30;99.90
13426;DHT22;6785;57.918;12.530;2022-08-06T04:10:07;12.40;99.90
13426;DHT22;6785;57.918;12.530;2022-08-06T04:12:35;12.40;99.90
13426;DHT22;6785;57.918;12.530;2022-08-06T04:15:03;12.40;99.90
13426;DHT22;6785;57.918;12.530;2022-08-06T04:17:31;12.50;99.90
13426;DHT22;6785;57.918;12.530;2022-08-06T04:19:59;12.60;99.90
13426;DHT22;6785;57.918;12.530;2022-08-06T04:22:28;12.60;99.90
13426;DHT22;6785;57.918;12.530;2022-08-06T04:24:55;12.60;99.90
13426;DHT22;6785;57.918;12.530;2022-08-06T04:27:24;12.70;99.90
13426;DHT22;6785;57.918;12.530;2022-08-06T04:29:53;12.80;99.90
13426;DHT22;6785;57.918;12.530;2022-08-06T04:32:21;12.90;99.90
13426;DHT22;6785;57.918;12.530;2022-08-06T04:34:50;12.90;99.90
13426;DHT22;6785;57.918;12.530;2022-08-06T04:37:18;12.90;99.90
13426;DHT22;6785;57.918;12.530;2022-08-06T04:39:46;13.00;99.90
13426;DHT22;6785;57.918;12.530;2022-08-06T04:42:14;13.00;99.90
13426;DHT22;6785;57.918;12.530;2022-08-06T04:44:41;13.10;99.90
13426;DHT22;6785;57.918;12.530;2022-08-06T04:47:09;13.10;99.90
13426;DHT22;6785;57.918;12.530;2022-08-06T04:49:37;13.20;99.90
13426;DHT22;6785;57.918;12.530;2022-08-06T04:52:05;13.20;99.90
13426;DHT22;6785;57.918;12.530;2022-08-06T04:54:32;13.30;99.90
13426;DHT22;6785;57.918;12.530;2022-08-06T04:57:00;13.30;99.90
13426;DHT22;6785;57.918;12.530;2022-08-06T04:59:27;13.30;99.90
13426;DHT22;6785;57.918;12.530;2022-08-06T05:01:53;13.40;99.90
13426;DHT22;6785;57.918;12.530;2022-08-06T05:04:21;13.40;99.90
13426;DHT22;6785;57.918;12.530;2022-08-06T05:06:54;13.40;99.90
13426;DHT22;6785;57.918;12.530;2022-08-06T05:09:25;13.50;99.90
13426;DHT22;6785;57.918;12.530;2022-08-06T05:11:56;13.50;99.90
13426;DHT22;6785;57.918;12.530;2022-08-06T05:14:29;13.50;99.90
13426;DHT22;6785;57.918;12.530;2022-08-06T05:16:57;13.60;99.90
13426;DHT22;6785;57.918;12.530;2022-08-06T05:19:33;13.60;99.90
13426;DHT22;6785;57.918;12.530;2022-08-06T05:22:02;13.70;99.90
13426;DHT22;6785;57.918;12.530;2022-08-06T05:24:31;13.70;99.90
13426;DHT22;6785;57.918;12.530;2022-08-06T05:26:59;13.70;99.90
13426;DHT22;6785;57.918;12.530;2022-08-06T05:29:28;13.70;99.90
13426;DHT22;6785;57.918;12.530;2022-08-06T05:31:58;13.80;99.90
13426;DHT22;6785;57.918;12.530;2022-08-06T05:34:25;13.90;99.90
13426;DHT22;6785;57.918;12.530;2022-08-06T05:36:52;13.90;99.90
13426;DHT22;6785;57.918;12.530;2022-08-06T05:39:19;13.90;99.90
13426;DHT22;6785;57.918;12.530;2022-08-06T05:41:46;14.00;99.90
13426;DHT22;6785;57.918;12.530;2022-08-06T05:44:13;14.00;99.90
13426;DHT22;6785;57.918;12.530;2022-08-06T05:46:46;14.10;99.90
13426;DHT22;6785;57.918;12.530;2022-08-06T05:49:17;14.20;99.90
13426;DHT22;6785;57.918;12.530;2022-08-06T05:51:49;14.30;99.90
13426;DHT22;6785;57.918;12.530;2022-08-06T05:54:22;14.40;99.90
13426;DHT22;6785;57.918;12.530;2022-08-06T05:56:52;14.40;99.90
13426;DHT22;6785;57.918;12.530;2022-08-06T05:59:25;14.50;99.90
13426;DHT22;6785;57.918;12.530;2022-08-06T06:01:55;14.50;99.90
13426;DHT22;6785;57.918;12.530;2022-08-06T06:04:23;14.40;99.90
13426;DHT22;6785;57.918;12.530;2022-08-06T06:06:51;14.30;99.90
13426;DHT22;6785;57.918;12.530;2022-08-06T06:09:18;14.50;99.90
13426;DHT22;6785;57.918;12.530;2022-08-06T06:11:45;14.50;99.90
13426;DHT22;6785;57.918;12.530;2022-08-06T06:14:27;14.50;99.90
13426;DHT22;6785;57.918;12.530;2022-08-06T06:17:12;14.20;99.90
13426;DHT22;6785;57.918;12.530;2022-08-06T06:19:52;14.00;99.90
13426;DHT22;6785;57.918;12.530;2022-08-06T06:22:22;14.00;99.90
13426;DHT22;6785;57.918;12.530;2022-08-06T06:24:55;14.10;99.90
13426;DHT22;6785;57.918;12.530;2022-08-06T06:27:31;14.20;99.90
13426;DHT22;6785;57.918;12.530;2022-08-06T06:30:03;14.30;99.90
13426;DHT22;6785;57.918;12.530;2022-08-06T06:32:42;14.40;99.90
13426;DHT22;6785;57.918;12.530;2022-08-06T06:35:29;14.40;99.90
13426;DHT22;6785;57.918;12.530;2022-08-06T06:38:13;14.50;99.90
13426;DHT22;6785;57.918;12.530;2022-08-06T06:40:51;14.60;99.90
13426;DHT22;6785;57.918;12.530;2022-08-06T06:43:25;14.70;99.90
13426;DHT22;6785;57.918;12.530;2022-08-06T06:45:57;14.70;99.90
13426;DHT22;6785;57.918;12.530;2022-08-06T06:48:33;14.70;99.90
13426;DHT22;6785;57.918;12.530;2022-08-06T06:51:04;14.50;99.90
13426;DHT22;6785;57.918;12.530;2022-08-06T06:53:35;14.50;99.90
13426;DHT22;6785;57.918;12.530;2022-08-06T06:56:04;14.70;99.90
13426;DHT22;6785;57.918;12.530;2022-08-06T06:58:35;14.80;99.90
13426;DHT22;6785;57.918;12.530;2022-08-06T07:01:04;14.70;99.90
13426;DHT22;6785;57.918;12.530;2022-08-06T07:03:34;14.70;99.90
13426;DHT22;6785;57.918;12.530;2022-08-06T07:06:06;14.60;99.90
13426;DHT22;6785;57.918;12.530;2022-08-06T07:08:35;14.70;99.90
13426;DHT22;6785;57.918;12.530;2022-08-06T07:11:06;14.80;99.90
13426;DHT22;6785;57.918;12.530;2022-08-06T07:13:35;14.80;99.90
13426;DHT22;6785;57.918;12.530;2022-08-06T07:16:04;14.70;99.90
13426;DHT22;6785;57.918;12.530;2022-08-06T07:18:33;14.90;99.90
13426;DHT22;6785;57.918;12.530;2022-08-06T07:21:01;15.10;99.90
13426;DHT22;6785;57.918;12.530;2022-08-06T07:23:29;15.60;99.90
13426;DHT22;6785;57.918;12.530;2022-08-06T07:25:56;15.80;99.90
13426;DHT22;6785;57.918;12.530;2022-08-06T07:28:25;15.70;99.90
13426;DHT22;6785;57.918;12.530;2022-08-06T07:30:53;15.80;99.90
13426;DHT22;6785;57.918;12.530;2022-08-06T07:33:21;15.40;99.90
13426;DHT22;6785;57.918;12.530;2022-08-06T07:35:51;15.20;99.90
13426;DHT22;6785;57.918;12.530;2022-08-06T07:38:20;15.10;99.90
13426;DHT22;6785;57.918;12.530;2022-08-06T07:40:51;15.10;99.90
13426;DHT22;6785;57.918;12.530;2022-08-06T07:43:21;15.10;99.90
13426;DHT22;6785;57.918;12.530;2022-08-06T07:45:51;14.90;99.90
13426;DHT22;6785;57.918;12.530;2022-08-06T07:48:24;14.80;99.90
13426;DHT22;6785;57.918;12.530;2022-08-06T07:50:55;14.90;99.90
13426;DHT22;6785;57.918;12.530;2022-08-06T07:53:23;15.20;99.90
13426;DHT22;6785;57.918;12.530;2022-08-06T07:55:51;15.30;99.90
13426;DHT22;6785;57.918;12.530;2022-08-06T07:58:18;15.20;99.90
13426;DHT22;6785;57.918;12.530;2022-08-06T08:00:46;15.20;99.90
13426;DHT22;6785;57.918;12.530;2022-08-06T08:03:14;15.20;99.90
13426;DHT22;6785;57.918;12.530;2022-08-06T08:06:01;15.50;99.90
13426;DHT22;6785;57.918;12.530;2022-08-06T08:08:51;16.20;99.90
13426;DHT22;6785;57.918;12.530;2022-08-06T08:11:19;16.50;99.90
13426;DHT22;6785;57.918;12.530;2022-08-06T08:13:47;16.40;99.90
13426;DHT22;6785;57.918;12.530;2022-08-06T08:16:14;16.10;99.90
13426;DHT22;6785;57.918;12.530;2022-08-06T08:18:42;16.00;99.90
13426;DHT22;6785;57.918;12.530;2022-08-06T08:21:12;15.60;99.90
13426;DHT22;6785;57.918;12.530;2022-08-06T08:23:39;15.30;99.90
13426;DHT22;6785;57.918;12.530;2022-08-06T08:26:07;15.20;99.90
13426;DHT22;6785;57.918;12.530;2022-08-06T08:28:35;15.00;99.90
13426;DHT22;6785;57.918;12.530;2022-08-06T08:31:03;15.10;99.90
13426;DHT22;6785;57.918;12.530;2022-08-06T08:33:32;15.20;99.90
13426;DHT22;6785;57.918;12.530;2022-08-06T08:35:59;15.50;99.90
13426;DHT22;6785;57.918;12.530;2022-08-06T08:38:28;15.90;99.90
13426;DHT22;6785;57.918;12.530;2022-08-06T08:40:56;16.20;99.90
13426;DHT22;6785;57.918;12.530;2022-08-06T08:43:29;16.40;99.90
13426;DHT22;6785;57.918;12.530;2022-08-06T08:45:57;16.70;99.90
13426;DHT22;6785;57.918;12.530;2022-08-06T08:48:27;17.00;99.90
13426;DHT22;6785;57.918;12.530;2022-08-06T08:50:58;17.30;99.90
13426;DHT22;6785;57.918;12.530;2022-08-06T08:53:31;17.50;99.90
13426;DHT22;6785;57.918;12.530;2022-08-06T08:56:01;17.50;99.90
13426;DHT22;6785;57.918;12.530;2022-08-06T08:58:28;17.40;99.90
13426;DHT22;6785;57.918;12.530;2022-08-06T09:00:57;17.30;99.90
13426;DHT22;6785;57.918;12.530;2022-08-06T09:03:24;17.30;99.90
13426;DHT22;6785;57.918;12.530;2022-08-06T09:05:51;17.20;99.90
13426;DHT22;6785;57.918;12.530;2022-08-06T09:08:19;17.00;99.90
13426;DHT22;6785;57.918;12.530;2022-08-06T09:10:47;17.10;99.90
13426;DHT22;6785;57.918;12.530;2022-08-06T09:13:15;17.20;99.90
13426;DHT22;6785;57.918;12.530;2022-08-06T09:15:42;17.20;99.90
13426;DHT22;6785;57.918;12.530;2022-08-06T09:18:09;17.20;99.90
13426;DHT22;6785;57.918;12.530;2022-08-06T09:20:36;17.30;99.90
13426;DHT22;6785;57.918;12.530;2022-08-06T09:23:03;17.30;99.90
13426;DHT22;6785;57.918;12.530;2022-08-06T09:25:38;17.40;99.90
13426;DHT22;6785;57.918;12.530;2022-08-06T09:28:11;17.40;99.90
13426;DHT22;6785;57.918;12.530;2022-08-06T09:30:38;17.30;99.90
13426;DHT22;6785;57.918;12.530;2022-08-06T09:33:12;17.30;99.90
13426;DHT22;6785;57.918;12.530;2022-08-06T09:35:39;17.20;99.90
13426;DHT22;6785;57.918;12.530;2022-08-06T09:38:07;17.30;99.90
13426;DHT22;6785;57.918;12.530;2022-08-06T09:40:35;17.50;99.90
13426;DHT22;6785;57.918;12.530;2022-08-06T09:43:02;17.40;99.90
13426;DHT22;6785;57.918;12.530;2022-08-06T09:45:30;17.50;99.90
13426;DHT22;6785;57.918;12.530;2022-08-06T09:48:02;17.60;99.90
13426;DHT22;6785;57.918;12.530;2022-08-06T09:50:38;17.50;99.90
13426;DHT22;6785;57.918;12.530;2022-08-06T09:53:05;17.30;99.90
13426;DHT22;6785;57.918;12.530;2022-08-06T09:55:32;17.40;99.90
13426;DHT22;6785;57.918;12.530;2022-08-06T09:57:59;17.50;99.90
13426;DHT22;6785;57.918;12.530;2022-08-06T10:00:28;17.50;99.90
13426;DHT22;6785;57.918;12.530;2022-08-06T10:02:58;17.60;99.90
13426;DHT22;6785;57.918;12.530;2022-08-06T10:05:26;17.60;99.90
13426;DHT22;6785;57.918;12.530;2022-08-06T10:08:07;17.60;99.90
13426;DHT22;6785;57.918;12.530;2022-08-06T10:10:45;17.80;99.90
13426;DHT22;6785;57.918;12.530;2022-08-06T10:13:14;17.80;99.90
13426;DHT22;6785;57.918;12.530;2022-08-06T10:15:42;17.80;99.90
13426;DHT22;6785;57.918;12.530;2022-08-06T10:21:00;18.20;99.90
13426;DHT22;6785;57.918;12.530;2022-08-06T10:23:29;18.10;99.90
13426;DHT22;6785;57.918;12.530;2022-08-06T10:25:57;18.30;99.90
13426;DHT22;6785;57.918;12.530;2022-08-06T10:28:26;18.50;99.90
13426;DHT22;6785;57.918;12.530;2022-08-06T10:30:54;18.70;99.90
13426;DHT22;6785;57.918;12.530;2022-08-06T10:33:23;18.70;99.90
13426;DHT22;6785;57.918;12.530;2022-08-06T10:35:52;18.60;99.90
13426;DHT22;6785;57.918;12.530;2022-08-06T10:38:25;19.00;99.90
13426;DHT22;6785;57.918;12.530;2022-08-06T10:40:53;19.00;99.90
13426;DHT22;6785;57.918;12.530;2022-08-06T10:43:21;18.70;99.90
13426;DHT22;6785;57.918;12.530;2022-08-06T10:45:48;18.60;99.90
13426;DHT22;6785;57.918;12.530;2022-08-06T10:48:15;18.50;99.90
13426;DHT22;6785;57.918;12.530;2022-08-06T10:50:44;18.00;99.90
13426;DHT22;6785;57.918;12.530;2022-08-06T10:53:11;17.40;99.90
13426;DHT22;6785;57.918;12.530;2022-08-06T10:55:38;17.30;99.90
13426;DHT22;6785;57.918;12.530;2022-08-06T10:58:06;17.30;99.90
13426;DHT22;6785;57.918;12.530;2022-08-06T11:00:33;17.40;99.90
13426;DHT22;6785;57.918;12.530;2022-08-06T11:03:09;17.70;99.90
13426;DHT22;6785;57.918;12.530;2022-08-06T11:05:39;18.00;99.90
13426;DHT22;6785;57.918;12.530;2022-08-06T11:08:23;18.10;99.90
13426;DHT22;6785;57.918;12.530;2022-08-06T11:14:07;18.10;99.90
13426;DHT22;6785;57.918;12.530;2022-08-06T11:16:34;17.90;99.90
13426;DHT22;6785;57.918;12.530;2022-08-06T11:19:04;17.60;99.90
13426;DHT22;6785;57.918;12.530;2022-08-06T11:21:39;17.40;99.90
13426;DHT22;6785;57.918;12.530;2022-08-06T11:24:08;17.50;99.90
13426;DHT22;6785;57.918;12.530;2022-08-06T11:26:36;17.70;99.90
13426;DHT22;6785;57.918;12.530;2022-08-06T11:29:05;17.60;99.90
13426;DHT22;6785;57.918;12.530;2022-08-06T11:31:41;17.80;99.90
13426;DHT22;6785;57.918;12.530;2022-08-06T11:34:11;18.00;99.90
13426;DHT22;6785;57.918;12.530;2022-08-06T11:36:54;17.90;99.90
13426;DHT22;6785;57.918;12.530;2022-08-06T11:39:24;17.70;99.90
13426;DHT22;6785;57.918;12.530;2022-08-06T11:41:55;17.70;99.90
13426;DHT22;6785;57.918;12.530;2022-08-06T11:44:23;17.90;99.90
13426;DHT22;6785;57.918;12.530;2022-08-06T11:47:09;18.00;99.90
13426;DHT22;6785;57.918;12.530;2022-08-06T11:49:38;18.20;99.90
13426;DHT22;6785;57.918;12.530;2022-08-06T11:52:07;18.00;99.90
13426;DHT22;6785;57.918;12.530;2022-08-06T11:54:36;18.10;99.90
13426;DHT22;6785;57.918;12.530;2022-08-06T11:57:26;18.20;99.90
13426;DHT22;6785;57.918;12.530;2022-08-06T12:00:14;18.40;99.90
13426;DHT22;6785;57.918;12.530;2022-08-06T12:02:52;18.50;99.90
13426;DHT22;6785;57.918;12.530;2022-08-06T12:05:33;18.50;99.90
13426;DHT22;6785;57.918;12.530;2022-08-06T12:08:18;18.50;99.90
13426;DHT22;6785;57.918;12.530;2022-08-06T12:11:24;18.50;99.90
13426;DHT22;6785;57.918;12.530;2022-08-06T12:13:54;18.80;99.90
13426;DHT22;6785;57.918;12.530;2022-08-06T12:16:41;18.90;99.90
13426;DHT22;6785;57.918;12.530;2022-08-06T12:19:13;18.90;99.90
13426;DHT22;6785;57.918;12.530;2022-08-06T12:21:41;18.90;99.90
13426;DHT22;6785;57.918;12.530;2022-08-06T12:24:12;18.90;99.90
13426;DHT22;6785;57.918;12.530;2022-08-06T12:26:41;19.00;99.90
13426;DHT22;6785;57.918;12.530;2022-08-06T12:29:09;19.00;99.90
13426;DHT22;6785;57.918;12.530;2022-08-06T12:31:38;18.80;99.90
13426;DHT22;6785;57.918;12.530;2022-08-06T12:34:05;18.90;99.90
13426;DHT22;6785;57.918;12.530;2022-08-06T12:36:34;19.00;99.90
13426;DHT22;6785;57.918;12.530;2022-08-06T12:39:05;19.10;99.90
13426;DHT22;6785;57.918;12.530;2022-08-06T12:41:33;19.10;99.90
13426;DHT22;6785;57.918;12.530;2022-08-06T12:44:02;19.10;99.90
13426;DHT22;6785;57.918;12.530;2022-08-06T12:46:29;18.80;99.90
13426;DHT22;6785;57.918;12.530;2022-08-06T12:48:56;18.50;99.90
13426;DHT22;6785;57.918;12.530;2022-08-06T12:51:23;18.10;99.90
13426;DHT22;6785;57.918;12.530;2022-08-06T12:53:52;18.10;99.90
13426;DHT22;6785;57.918;12.530;2022-08-06T12:56:20;18.10;99.90
13426;DHT22;6785;57.918;12.530;2022-08-06T12:58:49;18.30;99.90
13426;DHT22;6785;57.918;12.530;2022-08-06T13:01:18;18.40;99.90
13426;DHT22;6785;57.918;12.530;2022-08-06T13:03:47;18.60;99.90
13426;DHT22;6785;57.918;12.530;2022-08-06T13:06:16;18.60;99.90
13426;DHT22;6785;57.918;12.530;2022-08-06T13:08:46;18.80;99.90
13426;DHT22;6785;57.918;12.530;2022-08-06T13:11:13;18.90;99.90
13426;DHT22;6785;57.918;12.530;2022-08-06T13:13:42;18.90;99.90
13426;DHT22;6785;57.918;12.530;2022-08-06T13:16:13;19.00;99.90
13426;DHT22;6785;57.918;12.530;2022-08-06T13:18:43;18.90;99.90
13426;DHT22;6785;57.918;12.530;2022-08-06T13:21:28;18.50;99.90
13426;DHT22;6785;57.918;12.530;2022-08-06T13:23:55;18.20;99.90
13426;DHT22;6785;57.918;12.530;2022-08-06T13:26:24;17.80;99.90
13426;DHT22;6785;57.918;12.530;2022-08-06T13:29:14;17.90;99.90
13426;DHT22;6785;57.918;12.530;2022-08-06T13:31:42;18.10;99.90
13426;DHT22;6785;57.918;12.530;2022-08-06T13:34:12;18.40;99.90
13426;DHT22;6785;57.918;12.530;2022-08-06T13:36:42;18.70;99.90
13426;DHT22;6785;57.918;12.530;2022-08-06T13:39:20;18.70;99.90
13426;DHT22;6785;57.918;12.530;2022-08-06T13:41:47;18.60;99.90
13426;DHT22;6785;57.918;12.530;2022-08-06T13:44:26;18.70;99.90
13426;DHT22;6785;57.918;12.530;2022-08-06T13:46:53;18.30;99.90
13426;DHT22;6785;57.918;12.530;2022-08-06T13:49:21;18.00;99.90
13426;DHT22;6785;57.918;12.530;2022-08-06T13:51:48;17.80;99.90
13426;DHT22;6785;57.918;12.530;2022-08-06T13:54:15;17.50;99.90
13426;DHT22;6785;57.918;12.530;2022-08-06T13:56:43;17.50;99.90
13426;DHT22;6785;57.918;12.530;2022-08-06T13:59:09;17.60;99.90
13426;DHT22;6785;57.918;12.530;2022-08-06T14:01:36;17.50;99.90
13426;DHT22;6785;57.918;12.530;2022-08-06T14:04:03;17.80;99.90
13426;DHT22;6785;57.918;12.530;2022-08-06T14:06:31;18.00;99.90
13426;DHT22;6785;57.918;12.530;2022-08-06T14:08:58;18.00;99.90
13426;DHT22;6785;57.918;12.530;2022-08-06T14:11:25;17.90;99.90
13426;DHT22;6785;57.918;12.530;2022-08-06T14:13:52;17.80;99.90
13426;DHT22;6785;57.918;12.530;2022-08-06T14:16:19;17.60;99.90
13426;DHT22;6785;57.918;12.530;2022-08-06T14:18:46;17.60;99.90
13426;DHT22;6785;57.918;12.530;2022-08-06T14:21:13;17.40;99.90
13426;DHT22;6785;57.918;12.530;2022-08-06T14:23:41;17.30;99.90
13426;DHT22;6785;57.918;12.530;2022-08-06T14:26:08;17.40;99.90
13426;DHT22;6785;57.918;12.530;2022-08-06T14:28:35;17.50;99.90
13426;DHT22;6785;57.918;12.530;2022-08-06T14:31:02;17.50;99.90
13426;DHT22;6785;57.918;12.530;2022-08-06T14:33:29;17.70;99.90
13426;DHT22;6785;57.918;12.530;2022-08-06T14:35:56;17.90;99.90
13426;DHT22;6785;57.918;12.530;2022-08-06T14:38:23;18.10;99.90
13426;DHT22;6785;57.918;12.530;2022-08-06T14:40:51;18.30;99.90
13426;DHT22;6785;57.918;12.530;2022-08-06T14:43:35;18.40;99.90
13426;DHT22;6785;57.918;12.530;2022-08-06T14:46:20;18.40;99.90
13426;DHT22;6785;57.918;12.530;2022-08-06T14:48:46;18.40;99.90
13426;DHT22;6785;57.918;12.530;2022-08-06T14:51:13;18.30;99.90
13426;DHT22;6785;57.918;12.530;2022-08-06T14:53:40;18.20;99.90
13426;DHT22;6785;57.918;12.530;2022-08-06T14:56:09;18.20;99.90
13426;DHT22;6785;57.918;12.530;2022-08-06T14:58:36;18.30;99.90
13426;DHT22;6785;57.918;12.530;2022-08-06T15:01:02;18.20;99.90
13426;DHT22;6785;57.918;12.530;2022-08-06T15:03:29;18.00;99.90
13426;DHT22;6785;57.918;12.530;2022-08-06T15:05:56;17.70;99.90
13426;DHT22;6785;57.918;12.530;2022-08-06T15:08:23;17.60;99.90
13426;DHT22;6785;57.918;12.530;2022-08-06T15:10:50;17.50;99.90
13426;DHT22;6785;57.918;12.530;2022-08-06T15:13:18;17.40;99.90
13426;DHT22;6785;57.918;12.530;2022-08-06T15:15:45;17.30;99.90
13426;DHT22;6785;57.918;12.530;2022-08-06T15:18:12;17.40;99.90
13426;DHT22;6785;57.918;12.530;2022-08-06T15:20:39;17.40;99.90
13426;DHT22;6785;57.918;12.530;2022-08-06T15:23:06;17.50;99.90
13426;DHT22;6785;57.918;12.530;2022-08-06T15:25:33;17.50;99.90
13426;DHT22;6785;57.918;12.530;2022-08-06T15:27:59;17.30;99.90
13426;DHT22;6785;57.918;12.530;2022-08-06T15:30:28;17.20;99.90
13426;DHT22;6785;57.918;12.530;2022-08-06T15:32:55;17.30;99.90
13426;DHT22;6785;57.918;12.530;2022-08-06T15:35:22;17.40;99.90
13426;DHT22;6785;57.918;12.530;2022-08-06T15:37:49;17.40;99.90
13426;DHT22;6785;57.918;12.530;2022-08-06T15:40:18;17.40;99.90
13426;DHT22;6785;57.918;12.530;2022-08-06T15:42:45;17.40;99.90
13426;DHT22;6785;57.918;12.530;2022-08-06T15:45:12;17.30;99.90
13426;DHT22;6785;57.918;12.530;2022-08-06T15:47:41;17.40;99.90
13426;DHT22;6785;57.918;12.530;2022-08-06T15:50:08;17.40;99.90
13426;DHT22;6785;57.918;12.530;2022-08-06T15:52:36;17.30;99.90
13426;DHT22;6785;57.918;12.530;2022-08-06T15:55:04;17.30;99.90